Time;durP1;ratioP1;P1;durP2;ratioP2;P2;SDS_P1;SDS_P2;PMS_P1;PMS_P2;Temp;Humidity;BMP_temperature;BMP_pressure;BME280_temperature;BME280_humidity;BME280_pressure;Samples;Min_cycle;Max_cycle;Signal;HPM_P1;HPM_P2
2021/05/04 00:00:11;;;;;;;19.23;17.43;;;8.20;99.90;;;;;;6193548;23;20889;-69
2021/05/04 00:02:37;;;;;;;18.17;16.27;;;8.20;99.90;;;;;;6197370;23;20576;-64
2021/05/04 00:05:03;;;;;;;17.70;15.93;;;8.10;99.90;;;;;;6195512;23;21031;-64
2021/05/04 00:07:31;;;;;;;19.00;17.03;;;8.20;99.90;;;;;;6195304;23;20157;-64
2021/05/04 00:09:57;;;;;;;19.73;17.77;;;8.20;99.90;;;;;;6170753;22;20555;-63
2021/05/04 00:12:23;;;;;;;20.07;18.10;;;8.20;99.90;;;;;;6200532;23;20580;-64
2021/05/04 00:14:48;;;;;;;18.63;16.90;;;8.20;99.90;;;;;;6199980;23;20228;-66
2021/05/04 00:17:14;;;;;;;18.53;16.73;;;8.20;99.90;;;;;;6199459;23;20626;-64
2021/05/04 00:19:39;;;;;;;18.27;16.57;;;8.20;99.90;;;;;;6197905;23;20208;-64
2021/05/04 00:22:06;;;;;;;19.07;17.07;;;8.30;99.90;;;;;;6195477;23;20237;-64
2021/05/04 00:24:32;;;;;;;18.07;16.40;;;8.20;99.90;;;;;;6192244;22;20696;-68
2021/05/04 00:26:57;;;;;;;18.77;16.97;;;8.30;99.90;;;;;;6197878;23;20567;-64
2021/05/04 00:29:23;;;;;;;19.10;17.20;;;8.30;99.90;;;;;;6197425;23;20544;-67
2021/05/04 00:31:48;;;;;;;18.53;16.73;;;8.20;99.90;;;;;;6198943;23;20152;-68
2021/05/04 00:34:14;;;;;;;17.83;16.13;;;8.20;99.90;;;;;;6198792;23;20279;-64
2021/05/04 00:36:39;;;;;;;18.23;16.53;;;8.20;99.90;;;;;;6195606;23;20176;-64
2021/05/04 00:39:05;;;;;;;18.07;16.20;;;8.30;99.90;;;;;;6200440;23;20591;-65
2021/05/04 00:41:30;;;;;;;18.20;16.37;;;8.30;99.90;;;;;;6187095;23;20188;-68
2021/05/04 00:43:56;;;;;;;16.70;15.00;;;8.30;99.90;;;;;;6186392;23;20259;-64
2021/05/04 00:46:24;;;;;;;17.30;15.60;;;8.30;99.90;;;;;;6199339;23;20208;-65
2021/05/04 00:48:49;;;;;;;16.70;15.00;;;8.40;99.90;;;;;;6200035;23;20582;-64
2021/05/04 00:51:15;;;;;;;16.80;15.10;;;8.30;99.90;;;;;;6197740;23;20708;-65
2021/05/04 00:53:43;;;;;;;17.73;15.73;;;8.30;99.90;;;;;;6194487;23;20767;-64
2021/05/04 00:56:12;;;;;;;16.00;14.53;;;8.40;99.90;;;;;;6197522;23;20479;-66
2021/05/04 00:58:41;;;;;;;16.77;15.10;;;8.40;99.90;;;;;;6199272;22;20574;-66
2021/05/04 01:01:06;;;;;;;16.27;14.67;;;8.40;99.90;;;;;;6173740;22;20974;-67
2021/05/04 01:03:32;;;;;;;16.43;14.83;;;8.50;99.90;;;;;;6198103;23;20591;-64
2021/05/04 01:05:58;;;;;;;15.53;14.03;;;8.50;99.90;;;;;;6200559;23;20173;-64
2021/05/04 01:08:26;;;;;;;15.80;14.20;;;8.50;99.90;;;;;;6200291;23;20539;-65
2021/05/04 01:10:51;;;;;;;15.47;13.87;;;8.50;99.90;;;;;;6200038;23;20366;-67
2021/05/04 01:13:17;;;;;;;15.20;13.80;;;8.50;99.90;;;;;;6195505;23;20579;-64
2021/05/04 01:15:42;;;;;;;15.03;13.57;;;8.60;99.90;;;;;;6200689;23;20172;-65
2021/05/04 01:18:08;;;;;;;15.50;14.10;;;8.60;99.90;;;;;;6196468;23;20166;-67
2021/05/04 01:20:36;;;;;;;13.80;12.57;;;8.60;99.90;;;;;;6197009;23;20217;-67
2021/05/04 01:23:02;;;;;;;14.17;12.90;;;8.60;99.90;;;;;;6197572;23;20172;-67
2021/05/04 01:25:28;;;;;;;14.40;13.00;;;8.60;99.90;;;;;;6201096;23;20648;-68
2021/05/04 01:27:53;;;;;;;14.50;13.20;;;8.70;99.90;;;;;;6207533;23;20896;-64
2021/05/04 01:30:19;;;;;;;15.07;13.70;;;8.60;99.90;;;;;;6204688;23;20153;-64
2021/05/04 01:32:45;;;;;;;16.27;14.57;;;8.70;99.90;;;;;;6189965;23;20547;-64
2021/05/04 01:35:11;;;;;;;14.23;12.93;;;8.60;99.90;;;;;;6192332;23;20617;-69
2021/05/04 01:37:37;;;;;;;16.57;14.97;;;8.60;99.90;;;;;;6193244;22;20233;-65
2021/05/04 01:40:06;;;;;;;14.60;13.27;;;8.60;99.90;;;;;;6196807;23;20646;-64
2021/05/04 01:42:31;;;;;;;15.00;13.57;;;8.60;99.90;;;;;;6196397;23;20647;-68
2021/05/04 01:44:57;;;;;;;14.53;13.23;;;8.60;99.90;;;;;;6197494;23;20644;-64
2021/05/04 01:47:23;;;;;;;15.27;13.90;;;8.50;99.90;;;;;;6197032;22;20156;-65
2021/05/04 01:49:48;;;;;;;15.60;14.20;;;8.50;99.90;;;;;;6169752;23;20263;-67
2021/05/04 01:52:14;;;;;;;15.20;13.70;;;8.50;99.90;;;;;;6192007;23;20637;-68
2021/05/04 01:54:43;;;;;;;15.33;13.87;;;8.50;99.90;;;;;;6192917;23;20619;-64
2021/05/04 01:57:08;;;;;;;15.73;14.20;;;8.50;99.90;;;;;;6197755;23;20299;-65
2021/05/04 01:59:34;;;;;;;15.00;13.60;;;8.50;99.90;;;;;;6200572;23;20564;-64
2021/05/04 02:02:00;;;;;;;14.83;13.43;;;8.50;99.90;;;;;;6196757;23;20591;-63
2021/05/04 02:04:30;;;;;;;14.90;13.60;;;8.50;99.90;;;;;;6168226;23;20193;-61
2021/05/04 02:06:56;;;;;;;14.37;12.97;;;8.50;99.90;;;;;;6172858;23;20182;-62
2021/05/04 02:09:21;;;;;;;14.83;13.43;;;8.50;99.90;;;;;;6201028;23;20644;-62
2021/05/04 02:11:47;;;;;;;15.20;13.70;;;8.60;99.90;;;;;;6199271;23;20152;-61
2021/05/04 02:14:14;;;;;;;13.90;12.50;;;8.60;99.90;;;;;;6170258;22;20227;-61
2021/05/04 02:16:40;;;;;;;13.87;12.63;;;8.60;99.90;;;;;;6201534;23;20184;-61
2021/05/04 02:19:06;;;;;;;13.73;12.43;;;8.60;99.90;;;;;;6199846;23;20531;-64
2021/05/04 02:21:32;;;;;;;13.37;12.10;;;8.50;99.90;;;;;;6172101;23;20199;-62
2021/05/04 02:23:58;;;;;;;13.00;11.80;;;8.60;99.90;;;;;;6172600;23;20196;-61
2021/05/04 02:26:23;;;;;;;13.67;12.33;;;8.60;99.90;;;;;;6201173;23;20560;-62
2021/05/04 02:28:49;;;;;;;13.07;11.93;;;8.60;99.90;;;;;;6196670;23;20566;-62
2021/05/04 02:31:15;;;;;;;12.07;10.97;;;8.50;99.90;;;;;;6196385;23;20303;-62
2021/05/04 02:33:43;;;;;;;13.60;12.30;;;8.60;99.90;;;;;;6196594;22;20200;-62
2021/05/04 02:36:12;;;;;;;12.87;11.57;;;8.60;99.90;;;;;;6200021;23;20586;-62
2021/05/04 02:38:40;;;;;;;13.10;11.90;;;8.50;99.90;;;;;;6190663;23;20646;-61
2021/05/04 02:41:08;;;;;;;13.77;12.57;;;8.50;99.90;;;;;;6168667;23;20535;-62
2021/05/04 02:43:35;;;;;;;14.03;12.63;;;8.50;99.90;;;;;;6169687;22;20587;-62
2021/05/04 02:46:02;;;;;;;12.47;11.27;;;8.60;99.90;;;;;;6195710;23;20894;-62
2021/05/04 02:48:28;;;;;;;13.10;11.93;;;8.50;99.90;;;;;;6199478;22;20604;-60
2021/05/04 02:50:56;;;;;;;13.40;12.10;;;8.60;99.90;;;;;;6196976;23;21032;-61
2021/05/04 02:53:26;;;;;;;13.50;12.20;;;8.50;99.90;;;;;;6196150;23;20528;-62
2021/05/04 02:55:52;;;;;;;13.07;11.93;;;8.60;99.90;;;;;;6195446;23;20619;-61
2021/05/04 02:58:17;;;;;;;13.37;12.17;;;8.60;99.90;;;;;;6203205;23;21254;-62
2021/05/04 03:00:43;;;;;;;14.27;12.87;;;8.60;99.90;;;;;;6171296;23;20584;-61
2021/05/04 03:03:10;;;;;;;11.90;10.90;;;8.50;99.90;;;;;;6198070;23;20609;-62
2021/05/04 03:05:35;;;;;;;12.87;11.67;;;8.60;99.90;;;;;;6198070;23;20176;-63
2021/05/04 03:08:01;;;;;;;11.07;10.07;;;8.60;99.90;;;;;;6198813;23;20865;-62
2021/05/04 03:10:31;;;;;;;13.37;12.20;;;8.60;99.90;;;;;;6195116;23;20232;-61
2021/05/04 03:12:57;;;;;;;11.57;10.57;;;8.60;99.90;;;;;;6202502;23;20148;-62
2021/05/04 03:15:22;;;;;;;12.30;11.20;;;8.60;99.90;;;;;;6198985;23;20591;-61
2021/05/04 03:17:48;;;;;;;12.07;11.07;;;8.60;99.90;;;;;;6199651;23;20160;-62
2021/05/04 03:20:16;;;;;;;12.13;11.03;;;8.60;99.90;;;;;;6198824;23;20673;-62
2021/05/04 03:22:41;;;;;;;11.70;10.60;;;8.60;99.90;;;;;;6177491;22;20196;-62
2021/05/04 03:25:07;;;;;;;12.70;11.40;;;8.60;99.90;;;;;;6174995;23;20594;-62
2021/05/04 03:27:33;;;;;;;10.47;9.53;;;8.60;99.90;;;;;;6197930;23;20185;-62
2021/05/04 03:29:59;;;;;;;10.43;9.53;;;8.70;99.90;;;;;;6170395;23;21091;-61
2021/05/04 03:32:24;;;;;;;10.50;9.50;;;8.70;99.90;;;;;;6195838;23;20482;-62
2021/05/04 03:34:50;;;;;;;10.57;9.57;;;8.70;99.90;;;;;;6196674;23;20589;-61
2021/05/04 03:37:16;;;;;;;10.63;9.73;;;8.70;99.90;;;;;;6202391;23;20180;-62
2021/05/04 03:39:43;;;;;;;10.13;9.13;;;8.80;99.90;;;;;;6199349;23;20160;-61
2021/05/04 03:42:09;;;;;;;9.10;8.30;;;8.80;99.90;;;;;;6201847;23;20203;-60
2021/05/04 03:44:35;;;;;;;9.23;8.43;;;8.80;99.90;;;;;;6199048;23;21038;-61
2021/05/04 03:47:01;;;;;;;9.40;8.60;;;8.80;99.90;;;;;;6200371;23;20558;-62
2021/05/04 03:49:28;;;;;;;9.83;8.83;;;8.80;99.90;;;;;;6199060;23;20499;-62
2021/05/04 03:51:54;;;;;;;9.30;8.03;;;8.90;99.90;;;;;;6200070;23;20970;-61
2021/05/04 03:54:22;;;;;;;8.73;7.93;;;8.90;99.90;;;;;;6198207;23;20633;-62
2021/05/04 03:56:48;;;;;;;8.93;8.03;;;8.90;99.90;;;;;;6172761;23;20180;-61
2021/05/04 03:59:14;;;;;;;8.80;7.90;;;8.90;99.90;;;;;;6203243;23;20659;-61
2021/05/04 04:01:39;;;;;;;8.90;8.10;;;8.90;99.90;;;;;;6200163;22;20523;-60
2021/05/04 04:04:05;;;;;;;8.47;7.70;;;9.00;99.90;;;;;;6199550;22;20698;-62
2021/05/04 04:06:31;;;;;;;8.80;8.00;;;9.00;99.90;;;;;;6196537;23;20181;-62
2021/05/04 04:08:56;;;;;;;7.67;7.03;;;9.10;99.90;;;;;;6172794;23;20235;-62
2021/05/04 04:11:22;;;;;;;8.87;7.97;;;9.10;99.90;;;;;;6202762;23;20172;-62
2021/05/04 04:13:47;;;;;;;7.93;7.30;;;9.10;99.90;;;;;;6197026;23;20208;-62
2021/05/04 04:16:13;;;;;;;8.20;7.60;;;9.10;99.90;;;;;;6173730;23;20180;-62
2021/05/04 04:18:39;;;;;;;8.00;7.30;;;9.20;99.90;;;;;;6200979;23;20160;-62
2021/05/04 04:21:05;;;;;;;7.57;6.80;;;9.20;99.90;;;;;;6194873;23;20582;-62
2021/05/04 04:23:32;;;;;;;8.37;7.57;;;9.20;99.90;;;;;;6208344;23;20200;-62
2021/05/04 04:25:58;;;;;;;7.23;6.63;;;9.20;99.90;;;;;;6209688;23;20502;-62
2021/05/04 04:28:26;;;;;;;7.90;7.20;;;9.30;99.90;;;;;;6208195;23;20539;-62
2021/05/04 04:30:52;;;;;;;7.50;6.80;;;9.30;99.90;;;;;;6201268;23;20157;-62
2021/05/04 04:33:25;;;;;;;6.80;6.20;;;9.40;99.90;;;;;;6200950;22;21038;-62
2021/05/04 04:35:50;;;;;;;6.80;6.20;;;9.40;99.90;;;;;;6201997;23;20243;-61
2021/05/04 04:38:16;;;;;;;7.40;6.43;;;9.40;99.90;;;;;;6200155;23;20633;-61
2021/05/04 04:40:43;;;;;;;7.33;6.50;;;9.40;99.90;;;;;;6174173;22;20173;-62
2021/05/04 04:43:09;;;;;;;6.93;6.33;;;9.40;99.90;;;;;;6200273;23;20190;-62
2021/05/04 04:45:35;;;;;;;6.20;5.70;;;9.50;99.90;;;;;;6194968;23;20559;-61
2021/05/04 04:48:00;;;;;;;6.37;5.77;;;9.50;99.90;;;;;;6201227;23;20542;-62
2021/05/04 04:50:26;;;;;;;6.47;5.90;;;9.50;99.90;;;;;;6190921;22;20160;-62
2021/05/04 04:52:51;;;;;;;6.50;5.60;;;9.70;99.90;;;;;;6190861;22;20591;-61
2021/05/04 04:55:17;;;;;;;5.53;5.03;;;9.70;99.90;;;;;;6201602;23;20200;-62
2021/05/04 04:57:42;;;;;;;7.70;6.97;;;9.70;99.90;;;;;;6199662;23;20225;-62
2021/05/04 05:00:09;;;;;;;7.17;5.80;;;9.80;99.90;;;;;;6197831;23;20443;-61
2021/05/04 05:02:34;;;;;;;6.00;5.50;;;9.80;99.90;;;;;;6201513;23;20221;-62
2021/05/04 05:05:02;;;;;;;6.23;5.67;;;9.80;99.90;;;;;;6168141;23;20601;-62
2021/05/04 05:07:27;;;;;;;5.87;5.37;;;9.80;99.90;;;;;;6191765;23;20152;-62
2021/05/04 05:09:53;;;;;;;6.10;5.60;;;9.80;99.90;;;;;;6201273;23;20622;-61
2021/05/04 05:12:19;;;;;;;6.77;6.17;;;9.80;99.90;;;;;;6203003;23;20156;-62
2021/05/04 05:14:44;;;;;;;6.97;6.37;;;9.80;99.90;;;;;;6183456;22;20207;-59
2021/05/04 05:17:10;;;;;;;6.53;6.00;;;9.90;99.90;;;;;;6188993;23;21087;-60
2021/05/04 05:19:36;;;;;;;6.60;6.00;;;9.90;99.90;;;;;;6185293;22;20241;-61
2021/05/04 05:22:05;;;;;;;7.10;6.50;;;9.80;99.90;;;;;;6183860;23;20689;-62
2021/05/04 05:24:33;;;;;;;6.83;6.17;;;9.90;99.90;;;;;;6189129;23;20574;-62
2021/05/04 05:27:00;;;;;;;6.77;6.00;;;9.90;99.90;;;;;;6192280;23;20589;-61
2021/05/04 05:29:29;;;;;;;7.10;6.50;;;9.80;99.90;;;;;;6188854;23;20595;-61
2021/05/04 05:31:57;;;;;;;6.50;6.00;;;9.80;99.90;;;;;;6165689;23;20555;-63
2021/05/04 05:34:25;;;;;;;7.20;6.50;;;9.80;99.90;;;;;;6195641;23;21193;-61
2021/05/04 05:36:54;;;;;;;6.57;5.97;;;9.80;99.90;;;;;;6194132;22;20643;-62
2021/05/04 05:39:20;;;;;;;7.43;6.73;;;9.80;99.90;;;;;;6199787;23;20531;-62
2021/05/04 05:41:45;;;;;;;9.57;6.67;;;9.80;99.90;;;;;;6180541;22;20636;-62
2021/05/04 05:44:13;;;;;;;7.40;6.70;;;9.80;99.90;;;;;;6195267;23;21012;-62
2021/05/04 05:46:39;;;;;;;7.77;7.07;;;9.80;99.90;;;;;;6189923;22;20176;-62
2021/05/04 05:49:04;;;;;;;7.30;6.77;;;9.80;99.90;;;;;;6194964;23;20531;-62
2021/05/04 05:51:30;;;;;;;7.63;7.03;;;9.80;99.90;;;;;;6190488;23;20158;-61
2021/05/04 05:53:59;;;;;;;7.13;6.43;;;9.80;99.90;;;;;;6185684;23;20220;-61
2021/05/04 05:56:25;;;;;;;6.80;6.23;;;9.80;99.90;;;;;;6178761;22;20172;-62
2021/05/04 05:58:50;;;;;;;7.30;6.70;;;9.60;99.90;;;;;;6198728;23;20622;-61
2021/05/04 06:01:16;;;;;;;6.47;5.97;;;9.70;99.90;;;;;;6173332;23;20188;-62
2021/05/04 06:03:44;;;;;;;8.40;7.60;;;9.60;99.90;;;;;;6187575;22;20209;-61
2021/05/04 06:06:10;;;;;;;7.10;6.40;;;9.60;99.90;;;;;;6183538;23;20558;-61
2021/05/04 06:08:35;;;;;;;7.70;7.00;;;9.60;99.90;;;;;;6171416;23;20543;-62
2021/05/04 06:11:01;;;;;;;6.53;5.93;;;9.60;99.90;;;;;;6195237;23;20528;-61
2021/05/04 06:13:26;;;;;;;6.13;5.67;;;9.70;99.90;;;;;;6191531;23;20188;-62
2021/05/04 06:15:52;;;;;;;7.53;6.83;;;9.70;99.90;;;;;;6191512;22;20184;-61
2021/05/04 06:18:18;;;;;;;6.97;6.47;;;9.70;99.90;;;;;;6193233;23;20159;-62
2021/05/04 06:20:43;;;;;;;6.87;6.27;;;9.70;99.90;;;;;;6204967;23;20179;-61
2021/05/04 06:23:09;;;;;;;6.80;6.30;;;9.60;99.90;;;;;;6203206;23;20179;-61
2021/05/04 06:25:35;;;;;;;6.77;6.10;;;9.60;99.90;;;;;;6191724;23;20184;-64
2021/05/04 06:28:06;;;;;;;7.10;6.50;;;9.60;99.90;;;;;;6189961;23;20247;-62
2021/05/04 06:30:34;;;;;;;6.57;6.07;;;9.60;99.90;;;;;;6189412;23;20552;-61
2021/05/04 06:33:08;;;;;;;6.70;6.20;;;9.60;99.90;;;;;;6194178;23;20546;-62
2021/05/04 06:35:36;;;;;;;7.13;6.47;;;9.60;99.90;;;;;;6167150;23;20685;-62
2021/05/04 06:38:05;;;;;;;6.23;5.63;;;9.70;99.90;;;;;;6186877;23;20563;-62
2021/05/04 06:40:32;;;;;;;7.60;6.80;;;9.60;99.90;;;;;;6193999;22;21145;-61
2021/05/04 06:42:58;;;;;;;6.80;6.20;;;9.50;99.90;;;;;;6190959;23;20599;-61
2021/05/04 06:45:26;;;;;;;6.20;5.60;;;9.60;99.90;;;;;;6165860;23;20975;-61
2021/05/04 06:47:51;;;;;;;7.53;6.83;;;9.50;99.90;;;;;;6164697;23;20988;-62
2021/05/04 06:50:17;;;;;;;7.43;6.83;;;9.50;99.90;;;;;;6192425;23;20532;-61
2021/05/04 06:52:45;;;;;;;7.00;6.30;;;9.50;99.90;;;;;;6194181;23;20160;-62
2021/05/04 06:55:11;;;;;;;7.53;6.83;;;9.60;99.90;;;;;;6189097;22;20200;-62
2021/05/04 06:57:37;;;;;;;6.97;6.47;;;9.60;99.90;;;;;;6191249;23;20535;-70
2021/05/04 07:00:05;;;;;;;6.63;6.13;;;9.70;99.90;;;;;;6193886;22;20543;-61
2021/05/04 07:02:30;;;;;;;7.50;6.80;;;9.70;99.90;;;;;;6171301;23;20647;-62
2021/05/04 07:04:56;;;;;;;6.07;5.57;;;9.90;99.90;;;;;;6191611;23;20787;-62
2021/05/04 07:07:21;;;;;;;5.87;5.43;;;9.90;99.90;;;;;;6183198;23;20576;-64
2021/05/04 07:09:47;;;;;;;7.40;6.17;;;10.00;99.90;;;;;;6187900;22;20231;-62
2021/05/04 07:12:13;;;;;;;6.67;6.07;;;10.00;99.90;;;;;;6192185;23;20160;-61
2021/05/04 07:14:39;;;;;;;6.67;6.10;;;10.00;99.90;;;;;;6187595;23;20199;-61
2021/05/04 07:17:07;;;;;;;6.80;6.10;;;10.00;99.90;;;;;;6192445;23;20671;-61
2021/05/04 07:19:37;;;;;;;5.80;5.40;;;10.00;99.90;;;;;;6192019;23;20550;-62
2021/05/04 07:22:03;;;;;;;6.80;5.70;;;10.00;99.90;;;;;;6193501;23;20602;-62
2021/05/04 07:24:29;;;;;;;6.93;5.20;;;10.10;99.90;;;;;;6170053;22;20597;-61
2021/05/04 07:26:57;;;;;;;6.77;5.77;;;10.20;99.90;;;;;;6173867;23;20671;-61
2021/05/04 07:29:25;;;;;;;5.43;5.03;;;10.20;99.90;;;;;;6168700;23;21010;-62
2021/05/04 07:31:50;;;;;;;5.70;5.30;;;10.20;99.90;;;;;;6170774;23;20559;-62
2021/05/04 07:34:16;;;;;;;5.90;5.40;;;10.20;99.90;;;;;;6194001;23;20713;-62
2021/05/04 07:36:42;;;;;;;5.83;4.60;;;10.10;99.90;;;;;;6188431;22;20192;-62
2021/05/04 07:39:07;;;;;;;5.80;5.30;;;10.20;99.90;;;;;;6192787;22;20156;-61
2021/05/04 07:41:35;;;;;;;5.80;5.30;;;10.30;99.90;;;;;;6194364;23;20187;-62
2021/05/04 07:44:01;;;;;;;5.37;4.93;;;10.20;99.90;;;;;;6193614;22;20219;-62
2021/05/04 07:46:27;;;;;;;5.00;4.60;;;10.30;99.90;;;;;;6197277;23;20568;-62
2021/05/04 07:48:54;;;;;;;5.77;4.80;;;10.30;99.90;;;;;;6195192;23;20844;-61
2021/05/04 07:51:20;;;;;;;5.33;4.83;;;10.30;99.90;;;;;;6196028;22;20171;-69
2021/05/04 07:53:46;;;;;;;5.60;5.10;;;10.20;99.90;;;;;;6168186;23;20590;-68
2021/05/04 07:56:11;;;;;;;5.00;4.60;;;10.30;99.90;;;;;;6195837;23;20579;-66
2021/05/04 07:58:37;;;;;;;6.83;4.70;;;10.30;99.90;;;;;;6173170;23;20597;-62
2021/05/04 08:01:06;;;;;;;4.47;4.17;;;10.40;99.90;;;;;;6190516;23;20154;-60
2021/05/04 08:03:33;;;;;;;5.53;4.77;;;10.30;99.90;;;;;;6192406;22;20200;-61
2021/05/04 08:05:58;;;;;;;5.13;4.73;;;10.30;99.90;;;;;;6198489;23;20559;-61
2021/05/04 08:08:24;;;;;;;5.33;4.20;;;10.30;99.90;;;;;;6200795;23;21149;-61
2021/05/04 08:10:50;;;;;;;4.23;3.83;;;10.40;99.90;;;;;;6197878;23;20594;-67
2021/05/04 08:13:19;;;;;;;4.33;3.93;;;10.30;99.90;;;;;;6195436;23;20192;-65
2021/05/04 08:15:44;;;;;;;3.97;3.67;;;10.40;99.90;;;;;;6170645;22;20519;-65
2021/05/04 08:18:12;;;;;;;4.40;4.00;;;10.50;99.90;;;;;;6171596;23;20889;-68
2021/05/04 08:20:47;;;;;;;4.53;4.13;;;10.50;99.90;;;;;;6198658;22;20187;-61
2021/05/04 08:23:13;;;;;;;3.97;3.57;;;10.50;99.90;;;;;;6199616;22;20621;-66
2021/05/04 08:25:39;;;;;;;4.10;3.70;;;10.50;99.90;;;;;;6198779;22;20567;-66
2021/05/04 08:28:04;;;;;;;3.80;3.50;;;10.50;99.90;;;;;;6192827;23;20593;-66
2021/05/04 08:30:30;;;;;;;3.90;3.50;;;10.50;99.90;;;;;;6199861;23;20195;-66
2021/05/04 08:32:56;;;;;;;3.77;3.47;;;10.50;99.90;;;;;;6171126;23;20489;-64
2021/05/04 08:35:25;;;;;;;3.90;3.60;;;10.60;99.90;;;;;;6199188;23;20172;-64
2021/05/04 08:37:54;;;;;;;3.90;3.37;;;10.70;99.90;;;;;;6195987;22;20160;-67
2021/05/04 08:40:20;;;;;;;3.90;3.60;;;10.80;99.90;;;;;;6198171;23;20528;-64
2021/05/04 08:42:46;;;;;;;4.50;3.40;;;10.70;99.90;;;;;;6198508;23;20594;-64
2021/05/04 08:45:14;;;;;;;11.40;5.40;;;10.80;99.90;;;;;;6172795;22;20603;-62
2021/05/04 08:47:42;;;;;;;4.50;4.00;;;10.80;99.90;;;;;;6188697;23;20563;-62
2021/05/04 08:50:09;;;;;;;3.40;3.20;;;10.90;99.90;;;;;;6188596;23;20536;-61
2021/05/04 08:52:34;;;;;;;4.37;3.97;;;11.00;99.90;;;;;;6192594;23;20575;-60
2021/05/04 08:55:01;;;;;;;3.77;3.47;;;11.00;99.90;;;;;;6192827;23;20595;-61
2021/05/04 08:57:28;;;;;;;3.77;3.47;;;11.10;99.90;;;;;;6191915;23;20581;-61
2021/05/04 08:59:54;;;;;;;3.67;3.37;;;11.10;99.90;;;;;;6189947;23;20555;-62
2021/05/04 09:02:21;;;;;;;4.03;3.63;;;11.10;99.90;;;;;;6195008;23;20589;-62
2021/05/04 09:04:52;;;;;;;3.80;3.50;;;11.10;99.90;;;;;;6189557;23;20504;-62
2021/05/04 09:07:25;;;;;;;3.87;3.47;;;11.20;99.90;;;;;;6190198;22;20650;-62
2021/05/04 09:10:24;;;;;;;3.93;3.63;;;11.20;99.90;;;;;;6191241;23;20500;-61
2021/05/04 09:16:00;;;;;;;3.90;3.60;;;11.20;99.90;;;;;;6191177;23;20588;-62
2021/05/04 09:21:26;;;;;;;3.90;3.70;;;11.20;99.90;;;;;;6197172;23;20641;-62
2021/05/04 09:23:54;;;;;;;3.77;3.47;;;11.20;99.90;;;;;;6193061;23;21012;-62
2021/05/04 09:26:29;;;;;;;6.00;3.60;;;11.20;99.90;;;;;;6198290;22;21160;-61
2021/05/04 09:28:56;;;;;;;3.73;3.43;;;11.10;99.90;;;;;;6199060;23;20545;-62
2021/05/04 09:31:26;;;;;;;4.20;3.80;;;11.00;99.90;;;;;;6197849;22;20535;-60
2021/05/04 09:33:54;;;;;;;3.83;3.53;;;11.00;99.90;;;;;;6197286;23;20587;-61
2021/05/04 09:36:48;;;;;;;3.43;3.20;;;10.90;99.90;;;;;;6199958;23;21104;-62
2021/05/04 09:39:31;;;;;;;4.00;3.70;;;10.90;99.90;;;;;;6202745;23;20493;-60
2021/05/04 09:42:02;;;;;;;4.50;4.10;;;10.80;99.90;;;;;;6190017;23;20609;-61
2021/05/04 09:44:42;;;;;;;3.53;3.10;;;10.90;99.90;;;;;;6182077;23;20613;-61
2021/05/04 09:47:09;;;;;;;3.93;3.63;;;10.90;99.90;;;;;;6215661;23;20612;-61
2021/05/04 09:49:37;;;;;;;4.07;3.70;;;10.90;99.90;;;;;;6217276;23;20571;-60
2021/05/04 09:52:43;;;;;;;3.20;3.00;;;10.80;99.90;;;;;;6214207;23;20566;-60
2021/05/04 09:55:09;;;;;;;3.97;3.37;;;10.90;99.90;;;;;;6214501;23;20591;-61
2021/05/04 09:57:46;;;;;;;2.87;2.67;;;10.90;99.90;;;;;;6168402;22;20623;-62
2021/05/04 10:00:26;;;;;;;2.50;2.30;;;10.90;99.90;;;;;;6172080;23;20230;-63
2021/05/04 10:02:52;;;;;;;2.60;2.43;;;11.00;99.90;;;;;;6198754;23;20547;-61
2021/05/04 10:05:19;;;;;;;2.63;2.53;;;11.10;99.90;;;;;;6174458;23;20591;-61
2021/05/04 10:07:46;;;;;;;2.93;2.73;;;11.10;99.90;;;;;;6197996;23;20888;-60
2021/05/04 10:10:15;;;;;;;3.10;2.90;;;11.10;99.90;;;;;;6192682;23;21563;-61
2021/05/04 10:12:45;;;;;;;3.73;2.80;;;11.10;99.90;;;;;;6172504;23;21142;-61
2021/05/04 10:15:13;;;;;;;3.23;2.90;;;11.10;99.90;;;;;;6199308;23;20701;-61
2021/05/04 10:17:40;;;;;;;4.70;3.13;;;11.10;99.90;;;;;;6199677;23;20601;-63
2021/05/04 10:20:15;;;;;;;3.23;2.93;;;11.10;99.90;;;;;;6171759;23;20592;-62
2021/05/04 10:22:41;;;;;;;3.50;3.30;;;11.10;99.90;;;;;;6173292;23;20614;-62
2021/05/04 10:25:14;;;;;;;3.83;3.53;;;11.10;99.90;;;;;;6209361;23;21067;-63
2021/05/04 10:27:43;;;;;;;3.80;3.47;;;11.10;99.90;;;;;;6127109;23;20989;-70
2021/05/04 10:30:10;;;;;;;3.93;3.63;;;11.10;99.90;;;;;;6135862;23;20545;-70
2021/05/04 10:32:50;;;;;;;4.50;3.83;;;11.20;99.90;;;;;;6130725;22;20565;-70
2021/05/04 10:35:34;;;;;;;3.60;3.30;;;11.20;99.90;;;;;;6130866;23;20680;-70
2021/05/04 10:38:03;;;;;;;4.63;4.20;;;11.20;99.90;;;;;;6140608;23;21085;-70
2021/05/04 10:40:34;;;;;;;4.50;4.10;;;11.20;99.90;;;;;;6112008;23;20741;-70
2021/05/04 10:43:20;;;;;;;4.40;4.10;;;11.20;99.90;;;;;;6138944;23;20643;-69
2021/05/04 10:45:49;;;;;;;4.53;3.70;;;11.30;99.90;;;;;;6145943;23;20608;-71
2021/05/04 10:48:15;;;;;;;3.73;3.37;;;11.20;99.90;;;;;;6133603;23;21413;-70
2021/05/04 10:50:48;;;;;;;3.87;3.50;;;11.30;99.90;;;;;;6129846;23;20545;-70
2021/05/04 10:53:18;;;;;;;3.70;3.40;;;11.30;99.90;;;;;;6133313;23;20669;-69
2021/05/04 10:55:53;;;;;;;3.90;3.60;;;11.40;99.90;;;;;;6108186;23;20592;-69
2021/05/04 10:58:20;;;;;;;4.13;3.70;;;11.50;99.90;;;;;;6102148;23;20568;-70
2021/05/04 11:00:49;;;;;;;4.50;3.80;;;11.60;99.90;;;;;;6104025;23;20644;-68
2021/05/04 11:03:32;;;;;;;5.50;3.50;;;11.80;99.90;;;;;;6134847;23;20613;-70
2021/05/04 11:06:09;;;;;;;2.97;2.80;;;12.00;99.90;;;;;;6133603;23;20917;-69
2021/05/04 11:08:43;;;;;;;4.13;3.70;;;12.10;99.90;;;;;;6083078;23;20584;-68
2021/05/04 11:11:30;;;;;;;3.50;3.20;;;12.30;99.90;;;;;;6101483;23;21049;-68
2021/05/04 11:14:03;;;;;;;3.87;3.67;;;12.40;99.90;;;;;;6124779;23;20675;-68
2021/05/04 11:16:35;;;;;;;3.50;3.20;;;12.60;99.90;;;;;;6129627;23;20593;-68
2021/05/04 11:19:04;;;;;;;3.30;3.07;;;12.80;99.90;;;;;;6135548;23;20537;-70
2021/05/04 11:22:05;;;;;;;3.33;3.13;;;12.90;99.90;;;;;;6111105;23;20620;-69
2021/05/04 11:24:34;;;;;;;3.53;3.33;;;13.10;99.90;;;;;;6132361;23;20604;-70
2021/05/04 11:27:04;;;;;;;3.50;3.20;;;13.10;99.90;;;;;;6132232;23;20646;-69
2021/05/04 11:29:32;;;;;;;6.10;2.60;;;13.10;99.90;;;;;;6137556;23;20533;-70
2021/05/04 11:32:19;;;;;;;2.70;2.50;;;13.20;99.90;;;;;;6139975;23;20565;-70
2021/05/04 11:34:51;;;;;;;2.93;2.47;;;13.30;99.90;;;;;;6110998;23;20776;-69
2021/05/04 11:37:19;;;;;;;2.10;1.90;;;13.40;99.90;;;;;;6135730;23;20585;-69
2021/05/04 11:39:55;;;;;;;2.20;2.00;;;13.50;99.90;;;;;;6108883;23;20875;-69
2021/05/04 11:42:30;;;;;;;2.30;2.10;;;13.60;99.90;;;;;;6136828;23;20904;-69
2021/05/04 11:45:14;;;;;;;2.30;2.10;;;13.60;99.90;;;;;;6109653;23;21222;-67
2021/05/04 11:47:42;;;;;;;1.87;1.77;;;13.60;99.90;;;;;;6132140;23;21062;-68
2021/05/04 11:50:09;;;;;;;2.60;2.40;;;13.60;99.90;;;;;;6136064;23;20569;-69
2021/05/04 11:52:36;;;;;;;2.57;2.37;;;13.60;99.90;;;;;;6134808;23;20557;-69
2021/05/04 11:55:20;;;;;;;2.70;2.50;;;13.60;99.90;;;;;;6134018;23;20687;-69
2021/05/04 11:57:49;;;;;;;3.13;2.70;;;13.60;99.90;;;;;;6133632;23;20502;-70
2021/05/04 12:00:25;;;;;;;3.70;2.93;;;13.50;99.90;;;;;;6137242;23;20868;-69
2021/05/04 12:02:51;;;;;;;3.20;2.90;;;13.50;99.90;;;;;;6137579;23;21068;-70
2021/05/04 12:05:25;;;;;;;3.50;2.50;;;13.30;99.90;;;;;;6134057;23;20656;-69
2021/05/04 12:07:51;;;;;;;2.90;2.60;;;13.30;99.90;;;;;;6128696;23;20236;-69
2021/05/04 12:10:17;;;;;;;2.70;2.60;;;13.40;99.90;;;;;;6137323;23;20533;-67
2021/05/04 12:12:54;;;;;;;2.83;2.63;;;13.40;99.90;;;;;;6138918;23;20624;-70
2021/05/04 12:15:27;;;;;;;3.30;3.10;;;13.30;99.90;;;;;;6135213;23;20197;-70
2021/05/04 12:18:14;;;;;;;3.20;2.83;;;13.30;99.90;;;;;;6140169;23;20529;-69
2021/05/04 12:20:53;;;;;;;3.27;3.07;;;13.30;99.90;;;;;;6139202;23;21143;-68
2021/05/04 12:23:25;;;;;;;3.63;3.43;;;13.20;99.90;;;;;;6136612;23;20608;-68
2021/05/04 12:25:56;;;;;;;4.70;3.60;;;13.10;99.90;;;;;;6138763;23;20620;-69
2021/05/04 12:28:26;;;;;;;4.93;3.33;;;13.00;99.90;;;;;;6138549;23;20862;-68
2021/05/04 12:31:05;;;;;;;3.97;3.67;;;13.00;99.90;;;;;;6090754;23;21157;-70
2021/05/04 12:33:32;;;;;;;3.60;3.40;;;13.00;99.90;;;;;;6135451;23;20688;-69
2021/05/04 12:36:09;;;;;;;3.73;3.53;;;13.00;99.90;;;;;;6133191;23;20672;-69
2021/05/04 12:38:41;;;;;;;3.80;3.50;;;13.10;99.90;;;;;;6136717;23;21368;-68
2021/05/04 12:41:16;;;;;;;4.17;3.80;;;13.20;99.90;;;;;;6134497;23;20825;-68
2021/05/04 12:44:08;;;;;;;4.13;3.83;;;13.20;99.90;;;;;;6111001;22;20609;-69
2021/05/04 12:46:34;;;;;;;3.70;3.50;;;13.20;99.90;;;;;;6108213;23;20672;-69
2021/05/04 12:49:03;;;;;;;4.13;3.83;;;13.10;99.90;;;;;;6111757;23;20596;-69
2021/05/04 12:51:30;;;;;;;3.97;3.67;;;13.10;99.90;;;;;;6139090;23;20648;-69
2021/05/04 12:54:18;;;;;;;4.10;3.80;;;13.20;99.90;;;;;;6137254;23;21113;-68
2021/05/04 12:56:50;;;;;;;4.10;3.80;;;13.20;99.90;;;;;;6114510;23;21109;-71
2021/05/04 12:59:35;;;;;;;5.13;4.10;;;13.20;99.90;;;;;;6137821;23;20838;-68